sensor_id;sensor_type;location;lat;lon;timestamp;temperature;humidity
2749;DHT22;1382;52.142;11.618;2023-10-13T00:00:31;18.80;57.60
2749;DHT22;1382;52.142;11.618;2023-10-13T00:02:58;18.80;57.50
2749;DHT22;1382;52.142;11.618;2023-10-13T00:05:26;18.80;57.40
2749;DHT22;1382;52.142;11.618;2023-10-13T00:07:52;18.70;57.70
2749;DHT22;1382;52.142;11.618;2023-10-13T00:10:21;18.80;57.70
2749;DHT22;1382;52.142;11.618;2023-10-13T00:12:47;18.80;58.00
2749;DHT22;1382;52.142;11.618;2023-10-13T00:15:15;18.70;57.30
2749;DHT22;1382;52.142;11.618;2023-10-13T00:17:42;18.80;57.50
2749;DHT22;1382;52.142;11.618;2023-10-13T00:20:09;18.90;57.80
2749;DHT22;1382;52.142;11.618;2023-10-13T00:22:36;18.80;57.60
2749;DHT22;1382;52.142;11.618;2023-10-13T00:25:04;18.90;58.00
2749;DHT22;1382;52.142;11.618;2023-10-13T00:27:32;18.80;57.50
2749;DHT22;1382;52.142;11.618;2023-10-13T00:30:01;18.80;57.60
2749;DHT22;1382;52.142;11.618;2023-10-13T00:32:28;18.70;57.50
2749;DHT22;1382;52.142;11.618;2023-10-13T00:34:54;18.70;57.70
2749;DHT22;1382;52.142;11.618;2023-10-13T00:37:21;18.70;57.50
2749;DHT22;1382;52.142;11.618;2023-10-13T00:39:48;18.70;57.80
2749;DHT22;1382;52.142;11.618;2023-10-13T00:42:15;18.80;57.70
2749;DHT22;1382;52.142;11.618;2023-10-13T00:44:43;18.90;57.50
2749;DHT22;1382;52.142;11.618;2023-10-13T00:47:10;18.90;57.50
2749;DHT22;1382;52.142;11.618;2023-10-13T00:49:38;18.90;57.60
2749;DHT22;1382;52.142;11.618;2023-10-13T00:52:05;18.90;57.70
2749;DHT22;1382;52.142;11.618;2023-10-13T00:54:34;18.90;58.20
2749;DHT22;1382;52.142;11.618;2023-10-13T00:57:02;18.80;58.00
2749;DHT22;1382;52.142;11.618;2023-10-13T00:59:30;18.90;58.20
2749;DHT22;1382;52.142;11.618;2023-10-13T01:01:58;18.80;57.90
2749;DHT22;1382;52.142;11.618;2023-10-13T01:04:25;18.80;57.90
2749;DHT22;1382;52.142;11.618;2023-10-13T01:06:52;18.80;57.70
2749;DHT22;1382;52.142;11.618;2023-10-13T01:09:19;19.00;58.20
2749;DHT22;1382;52.142;11.618;2023-10-13T01:11:48;18.80;58.10
2749;DHT22;1382;52.142;11.618;2023-10-13T01:14:15;18.80;58.00
2749;DHT22;1382;52.142;11.618;2023-10-13T01:16:41;18.80;58.20
2749;DHT22;1382;52.142;11.618;2023-10-13T01:19:10;18.90;58.00
2749;DHT22;1382;52.142;11.618;2023-10-13T01:21:37;18.80;58.60
2749;DHT22;1382;52.142;11.618;2023-10-13T01:24:06;18.90;58.50
2749;DHT22;1382;52.142;11.618;2023-10-13T01:26:34;18.80;58.40
2749;DHT22;1382;52.142;11.618;2023-10-13T01:29:01;18.80;58.30
2749;DHT22;1382;52.142;11.618;2023-10-13T01:31:28;18.90;58.70
2749;DHT22;1382;52.142;11.618;2023-10-13T01:33:55;19.00;58.50
2749;DHT22;1382;52.142;11.618;2023-10-13T01:36:23;18.90;58.20
2749;DHT22;1382;52.142;11.618;2023-10-13T01:38:50;18.90;58.30
2749;DHT22;1382;52.142;11.618;2023-10-13T01:41:18;18.90;58.20
2749;DHT22;1382;52.142;11.618;2023-10-13T01:43:45;19.00;58.80
2749;DHT22;1382;52.142;11.618;2023-10-13T01:46:12;18.90;58.40
2749;DHT22;1382;52.142;11.618;2023-10-13T01:48:39;19.00;58.70
2749;DHT22;1382;52.142;11.618;2023-10-13T01:51:06;19.00;58.10
2749;DHT22;1382;52.142;11.618;2023-10-13T01:53:33;19.00;57.80
2749;DHT22;1382;52.142;11.618;2023-10-13T01:56:00;19.00;58.00
2749;DHT22;1382;52.142;11.618;2023-10-13T01:58:28;19.00;58.50
2749;DHT22;1382;52.142;11.618;2023-10-13T02:00:55;19.00;58.70
2749;DHT22;1382;52.142;11.618;2023-10-13T02:03:22;18.90;58.00
2749;DHT22;1382;52.142;11.618;2023-10-13T02:05:49;18.90;58.00
2749;DHT22;1382;52.142;11.618;2023-10-13T02:08:17;18.90;58.50
2749;DHT22;1382;52.142;11.618;2023-10-13T02:10:45;18.90;58.60
2749;DHT22;1382;52.142;11.618;2023-10-13T02:13:13;18.90;58.80
2749;DHT22;1382;52.142;11.618;2023-10-13T02:15:41;18.90;58.50
2749;DHT22;1382;52.142;11.618;2023-10-13T02:18:08;18.90;58.40
2749;DHT22;1382;52.142;11.618;2023-10-13T02:20:35;18.90;58.40
2749;DHT22;1382;52.142;11.618;2023-10-13T02:23:02;18.90;58.70
2749;DHT22;1382;52.142;11.618;2023-10-13T02:25:29;18.90;58.80
2749;DHT22;1382;52.142;11.618;2023-10-13T02:27:56;18.90;58.50
2749;DHT22;1382;52.142;11.618;2023-10-13T02:30:23;18.90;59.00
2749;DHT22;1382;52.142;11.618;2023-10-13T02:32:51;18.90;59.00
2749;DHT22;1382;52.142;11.618;2023-10-13T02:35:19;18.90;58.80
2749;DHT22;1382;52.142;11.618;2023-10-13T02:37:46;18.90;58.70
2749;DHT22;1382;52.142;11.618;2023-10-13T02:40:13;18.90;59.00
2749;DHT22;1382;52.142;11.618;2023-10-13T02:42:39;19.10;59.00
2749;DHT22;1382;52.142;11.618;2023-10-13T02:45:08;19.10;59.20
2749;DHT22;1382;52.142;11.618;2023-10-13T02:47:35;19.00;59.00
2749;DHT22;1382;52.142;11.618;2023-10-13T02:50:04;19.10;59.00
2749;DHT22;1382;52.142;11.618;2023-10-13T02:52:31;19.10;58.70
2749;DHT22;1382;52.142;11.618;2023-10-13T02:54:58;19.10;59.00
2749;DHT22;1382;52.142;11.618;2023-10-13T02:57:25;19.10;59.70
2749;DHT22;1382;52.142;11.618;2023-10-13T02:59:52;19.10;59.50
2749;DHT22;1382;52.142;11.618;2023-10-13T03:02:19;19.10;59.40
2749;DHT22;1382;52.142;11.618;2023-10-13T03:04:47;19.10;59.40
2749;DHT22;1382;52.142;11.618;2023-10-13T03:07:15;19.10;60.30
2749;DHT22;1382;52.142;11.618;2023-10-13T03:09:42;19.20;60.50
2749;DHT22;1382;52.142;11.618;2023-10-13T03:12:09;19.20;60.10
2749;DHT22;1382;52.142;11.618;2023-10-13T03:14:36;19.20;60.80
2749;DHT22;1382;52.142;11.618;2023-10-13T03:17:03;19.20;60.30
2749;DHT22;1382;52.142;11.618;2023-10-13T03:19:30;19.30;60.70
2749;DHT22;1382;52.142;11.618;2023-10-13T03:21:57;19.20;60.60
2749;DHT22;1382;52.142;11.618;2023-10-13T03:24:25;19.30;60.40
2749;DHT22;1382;52.142;11.618;2023-10-13T03:26:52;19.20;60.30
2749;DHT22;1382;52.142;11.618;2023-10-13T03:29:19;19.20;59.90
2749;DHT22;1382;52.142;11.618;2023-10-13T03:31:46;19.20;59.50
2749;DHT22;1382;52.142;11.618;2023-10-13T03:34:12;19.20;59.40
2749;DHT22;1382;52.142;11.618;2023-10-13T03:36:39;19.40;59.30
2749;DHT22;1382;52.142;11.618;2023-10-13T03:39:06;19.20;59.30
2749;DHT22;1382;52.142;11.618;2023-10-13T03:41:34;19.20;59.40
2749;DHT22;1382;52.142;11.618;2023-10-13T03:44:01;19.20;59.20
2749;DHT22;1382;52.142;11.618;2023-10-13T03:46:28;19.20;58.90
2749;DHT22;1382;52.142;11.618;2023-10-13T03:48:55;19.20;58.80
2749;DHT22;1382;52.142;11.618;2023-10-13T03:51:22;19.20;58.40
2749;DHT22;1382;52.142;11.618;2023-10-13T03:53:49;19.30;58.70
2749;DHT22;1382;52.142;11.618;2023-10-13T03:56:15;19.20;58.60
2749;DHT22;1382;52.142;11.618;2023-10-13T03:58:44;19.10;58.40
2749;DHT22;1382;52.142;11.618;2023-10-13T04:01:11;19.10;58.40
2749;DHT22;1382;52.142;11.618;2023-10-13T04:03:37;19.10;58.30
2749;DHT22;1382;52.142;11.618;2023-10-13T04:06:05;19.10;58.80
2749;DHT22;1382;52.142;11.618;2023-10-13T04:08:32;19.10;58.40
2749;DHT22;1382;52.142;11.618;2023-10-13T04:10:58;19.10;58.10
2749;DHT22;1382;52.142;11.618;2023-10-13T04:13:25;19.10;57.80
2749;DHT22;1382;52.142;11.618;2023-10-13T04:15:53;19.00;58.40
2749;DHT22;1382;52.142;11.618;2023-10-13T04:18:20;19.00;58.50
2749;DHT22;1382;52.142;11.618;2023-10-13T04:20:52;19.00;58.20
2749;DHT22;1382;52.142;11.618;2023-10-13T04:23:19;19.00;58.10
2749;DHT22;1382;52.142;11.618;2023-10-13T04:25:46;19.00;58.20
2749;DHT22;1382;52.142;11.618;2023-10-13T04:28:14;18.90;57.90
2749;DHT22;1382;52.142;11.618;2023-10-13T04:30:44;19.10;58.00
2749;DHT22;1382;52.142;11.618;2023-10-13T04:33:13;18.90;57.60
2749;DHT22;1382;52.142;11.618;2023-10-13T04:35:40;18.90;58.20
2749;DHT22;1382;52.142;11.618;2023-10-13T04:38:06;18.90;57.70
2749;DHT22;1382;52.142;11.618;2023-10-13T04:40:33;18.90;57.70
2749;DHT22;1382;52.142;11.618;2023-10-13T04:43:00;18.90;57.90
2749;DHT22;1382;52.142;11.618;2023-10-13T04:45:27;18.80;58.00
2749;DHT22;1382;52.142;11.618;2023-10-13T04:47:54;18.80;58.00
2749;DHT22;1382;52.142;11.618;2023-10-13T04:50:22;18.80;58.20
2749;DHT22;1382;52.142;11.618;2023-10-13T04:52:49;18.80;58.30
2749;DHT22;1382;52.142;11.618;2023-10-13T04:55:16;18.80;58.00
2749;DHT22;1382;52.142;11.618;2023-10-13T04:57:43;18.80;58.30
2749;DHT22;1382;52.142;11.618;2023-10-13T05:00:11;18.80;58.80
2749;DHT22;1382;52.142;11.618;2023-10-13T05:02:39;18.80;58.20
2749;DHT22;1382;52.142;11.618;2023-10-13T05:05:08;18.80;58.10
2749;DHT22;1382;52.142;11.618;2023-10-13T05:07:36;18.80;58.40
2749;DHT22;1382;52.142;11.618;2023-10-13T05:10:05;18.80;59.00
2749;DHT22;1382;52.142;11.618;2023-10-13T05:12:32;18.70;58.30
2749;DHT22;1382;52.142;11.618;2023-10-13T05:14:59;18.80;58.20
2749;DHT22;1382;52.142;11.618;2023-10-13T05:17:26;18.70;58.30
2749;DHT22;1382;52.142;11.618;2023-10-13T05:19:56;18.70;58.40
2749;DHT22;1382;52.142;11.618;2023-10-13T05:22:22;18.90;58.50
2749;DHT22;1382;52.142;11.618;2023-10-13T05:24:51;18.90;58.70
2749;DHT22;1382;52.142;11.618;2023-10-13T05:27:18;18.70;58.80
2749;DHT22;1382;52.142;11.618;2023-10-13T05:29:46;18.70;58.90
2749;DHT22;1382;52.142;11.618;2023-10-13T05:32:13;18.70;59.20
2749;DHT22;1382;52.142;11.618;2023-10-13T05:34:40;18.70;59.60
2749;DHT22;1382;52.142;11.618;2023-10-13T05:37:07;18.80;59.70
2749;DHT22;1382;52.142;11.618;2023-10-13T05:39:34;18.70;59.50
2749;DHT22;1382;52.142;11.618;2023-10-13T05:42:02;18.80;59.40
2749;DHT22;1382;52.142;11.618;2023-10-13T05:44:29;18.70;59.50
2749;DHT22;1382;52.142;11.618;2023-10-13T05:46:55;18.70;59.40
2749;DHT22;1382;52.142;11.618;2023-10-13T05:49:22;18.70;59.60
2749;DHT22;1382;52.142;11.618;2023-10-13T05:51:49;18.80;59.40
2749;DHT22;1382;52.142;11.618;2023-10-13T05:54:16;18.80;59.80
2749;DHT22;1382;52.142;11.618;2023-10-13T05:56:44;18.80;59.80
2749;DHT22;1382;52.142;11.618;2023-10-13T05:59:12;19.00;60.40
2749;DHT22;1382;52.142;11.618;2023-10-13T06:01:39;19.00;60.20
2749;DHT22;1382;52.142;11.618;2023-10-13T06:04:06;18.80;60.20
2749;DHT22;1382;52.142;11.618;2023-10-13T06:06:33;18.90;61.10
2749;DHT22;1382;52.142;11.618;2023-10-13T06:09:00;18.90;60.90
2749;DHT22;1382;52.142;11.618;2023-10-13T06:11:26;18.90;60.60
2749;DHT22;1382;52.142;11.618;2023-10-13T06:13:53;18.90;61.70
2749;DHT22;1382;52.142;11.618;2023-10-13T06:16:22;19.00;61.70
2749;DHT22;1382;52.142;11.618;2023-10-13T06:18:49;19.00;62.20
2749;DHT22;1382;52.142;11.618;2023-10-13T06:21:15;19.00;62.50
2749;DHT22;1382;52.142;11.618;2023-10-13T06:23:42;19.10;62.70
2749;DHT22;1382;52.142;11.618;2023-10-13T06:26:09;19.10;62.70
2749;DHT22;1382;52.142;11.618;2023-10-13T06:28:36;19.10;62.90
2749;DHT22;1382;52.142;11.618;2023-10-13T06:31:04;19.20;63.20
2749;DHT22;1382;52.142;11.618;2023-10-13T06:33:33;19.10;63.30
2749;DHT22;1382;52.142;11.618;2023-10-13T06:36:00;19.20;63.40
2749;DHT22;1382;52.142;11.618;2023-10-13T06:38:27;19.20;63.30
2749;DHT22;1382;52.142;11.618;2023-10-13T06:40:54;19.20;63.50
2749;DHT22;1382;52.142;11.618;2023-10-13T06:43:21;19.20;63.30
2749;DHT22;1382;52.142;11.618;2023-10-13T06:45:48;19.30;63.40
2749;DHT22;1382;52.142;11.618;2023-10-13T06:48:15;19.40;64.10
2749;DHT22;1382;52.142;11.618;2023-10-13T06:50:49;19.40;64.10
2749;DHT22;1382;52.142;11.618;2023-10-13T06:53:16;19.40;63.80
2749;DHT22;1382;52.142;11.618;2023-10-13T06:55:42;19.40;63.40
2749;DHT22;1382;52.142;11.618;2023-10-13T06:58:09;19.50;63.70
2749;DHT22;1382;52.142;11.618;2023-10-13T07:00:36;19.60;63.60
2749;DHT22;1382;52.142;11.618;2023-10-13T07:03:04;19.60;62.80
2749;DHT22;1382;52.142;11.618;2023-10-13T07:05:35;19.70;63.80
2749;DHT22;1382;52.142;11.618;2023-10-13T07:08:04;19.80;64.70
2749;DHT22;1382;52.142;11.618;2023-10-13T07:10:31;19.80;64.60
2749;DHT22;1382;52.142;11.618;2023-10-13T07:12:58;19.80;64.50
2749;DHT22;1382;52.142;11.618;2023-10-13T07:15:25;19.80;64.40
2749;DHT22;1382;52.142;11.618;2023-10-13T07:17:52;19.90;64.60
2749;DHT22;1382;52.142;11.618;2023-10-13T07:20:19;20.00;64.30
2749;DHT22;1382;52.142;11.618;2023-10-13T07:22:47;19.90;63.90
2749;DHT22;1382;52.142;11.618;2023-10-13T07:25:15;19.90;64.20
2749;DHT22;1382;52.142;11.618;2023-10-13T07:27:42;20.00;64.50
2749;DHT22;1382;52.142;11.618;2023-10-13T07:30:10;20.00;64.20
2749;DHT22;1382;52.142;11.618;2023-10-13T07:32:37;20.10;64.50
2749;DHT22;1382;52.142;11.618;2023-10-13T07:35:05;20.10;64.20
2749;DHT22;1382;52.142;11.618;2023-10-13T07:37:32;20.10;64.30
2749;DHT22;1382;52.142;11.618;2023-10-13T07:39:59;20.20;64.40
2749;DHT22;1382;52.142;11.618;2023-10-13T07:42:27;20.20;64.10
2749;DHT22;1382;52.142;11.618;2023-10-13T07:44:54;20.20;64.20
2749;DHT22;1382;52.142;11.618;2023-10-13T07:47:21;20.30;64.50
2749;DHT22;1382;52.142;11.618;2023-10-13T07:49:48;20.30;64.10
2749;DHT22;1382;52.142;11.618;2023-10-13T07:52:15;20.30;64.60
2749;DHT22;1382;52.142;11.618;2023-10-13T07:54:43;20.40;64.20
2749;DHT22;1382;52.142;11.618;2023-10-13T07:57:10;20.40;64.50
2749;DHT22;1382;52.142;11.618;2023-10-13T07:59:38;20.50;63.80
2749;DHT22;1382;52.142;11.618;2023-10-13T08:02:05;20.70;63.70
2749;DHT22;1382;52.142;11.618;2023-10-13T08:04:32;20.60;63.20
2749;DHT22;1382;52.142;11.618;2023-10-13T08:06:59;20.60;62.10
2749;DHT22;1382;52.142;11.618;2023-10-13T08:09:26;20.70;63.00
2749;DHT22;1382;52.142;11.618;2023-10-13T08:11:53;20.70;63.40
2749;DHT22;1382;52.142;11.618;2023-10-13T08:14:20;20.70;63.70
2749;DHT22;1382;52.142;11.618;2023-10-13T08:17:06;20.80;63.80
2749;DHT22;1382;52.142;11.618;2023-10-13T08:19:33;20.80;63.70
2749;DHT22;1382;52.142;11.618;2023-10-13T08:22:02;20.80;63.60
2749;DHT22;1382;52.142;11.618;2023-10-13T08:24:29;20.90;64.00
2749;DHT22;1382;52.142;11.618;2023-10-13T08:26:56;20.90;63.90
2749;DHT22;1382;52.142;11.618;2023-10-13T08:29:23;21.00;63.70
2749;DHT22;1382;52.142;11.618;2023-10-13T08:31:52;21.00;63.00
2749;DHT22;1382;52.142;11.618;2023-10-13T08:34:20;21.10;63.80
2749;DHT22;1382;52.142;11.618;2023-10-13T08:36:47;21.20;63.40
2749;DHT22;1382;52.142;11.618;2023-10-13T08:39:14;21.10;63.60
2749;DHT22;1382;52.142;11.618;2023-10-13T08:41:45;21.20;62.80
2749;DHT22;1382;52.142;11.618;2023-10-13T08:44:13;21.20;63.20
2749;DHT22;1382;52.142;11.618;2023-10-13T08:46:40;21.20;62.40
2749;DHT22;1382;52.142;11.618;2023-10-13T08:49:07;21.40;63.10
2749;DHT22;1382;52.142;11.618;2023-10-13T08:51:36;21.30;62.90
2749;DHT22;1382;52.142;11.618;2023-10-13T08:54:04;21.40;62.90
2749;DHT22;1382;52.142;11.618;2023-10-13T08:56:31;21.40;62.60
2749;DHT22;1382;52.142;11.618;2023-10-13T08:58:58;21.40;61.50
2749;DHT22;1382;52.142;11.618;2023-10-13T09:01:26;21.50;62.00
2749;DHT22;1382;52.142;11.618;2023-10-13T09:03:55;21.50;62.20
2749;DHT22;1382;52.142;11.618;2023-10-13T09:06:23;21.50;61.90
2749;DHT22;1382;52.142;11.618;2023-10-13T09:08:51;21.60;62.20
2749;DHT22;1382;52.142;11.618;2023-10-13T09:11:18;21.60;63.00
2749;DHT22;1382;52.142;11.618;2023-10-13T09:13:45;21.60;62.60
2749;DHT22;1382;52.142;11.618;2023-10-13T09:16:12;21.60;62.30
2749;DHT22;1382;52.142;11.618;2023-10-13T09:18:43;21.60;62.30
2749;DHT22;1382;52.142;11.618;2023-10-13T09:21:09;21.70;62.20
2749;DHT22;1382;52.142;11.618;2023-10-13T09:23:45;21.60;61.80
2749;DHT22;1382;52.142;11.618;2023-10-13T09:26:13;21.70;61.80
2749;DHT22;1382;52.142;11.618;2023-10-13T09:28:40;21.70;61.80
2749;DHT22;1382;52.142;11.618;2023-10-13T09:31:07;21.70;61.60
2749;DHT22;1382;52.142;11.618;2023-10-13T09:33:36;21.70;62.00
2749;DHT22;1382;52.142;11.618;2023-10-13T09:36:03;21.70;62.10
2749;DHT22;1382;52.142;11.618;2023-10-13T09:38:32;21.70;61.50
2749;DHT22;1382;52.142;11.618;2023-10-13T09:41:00;21.70;61.60
2749;DHT22;1382;52.142;11.618;2023-10-13T09:43:31;21.70;61.50
2749;DHT22;1382;52.142;11.618;2023-10-13T09:46:00;21.70;61.00
2749;DHT22;1382;52.142;11.618;2023-10-13T09:48:31;21.70;60.60
2749;DHT22;1382;52.142;11.618;2023-10-13T09:51:01;21.80;60.80
2749;DHT22;1382;52.142;11.618;2023-10-13T09:53:29;21.80;60.70
2749;DHT22;1382;52.142;11.618;2023-10-13T09:56:02;21.80;61.10
2749;DHT22;1382;52.142;11.618;2023-10-13T09:58:32;21.80;60.70
2749;DHT22;1382;52.142;11.618;2023-10-13T10:01:01;21.80;60.70
2749;DHT22;1382;52.142;11.618;2023-10-13T10:03:29;21.80;61.20
2749;DHT22;1382;52.142;11.618;2023-10-13T10:05:58;21.80;61.50
2749;DHT22;1382;52.142;11.618;2023-10-13T10:08:25;21.90;61.40
2749;DHT22;1382;52.142;11.618;2023-10-13T10:10:59;21.90;61.80
2749;DHT22;1382;52.142;11.618;2023-10-13T10:13:39;21.90;61.60
2749;DHT22;1382;52.142;11.618;2023-10-13T10:16:15;21.90;61.00
2749;DHT22;1382;52.142;11.618;2023-10-13T10:18:44;22.00;61.00
2749;DHT22;1382;52.142;11.618;2023-10-13T10:21:11;22.10;61.20
2749;DHT22;1382;52.142;11.618;2023-10-13T10:23:38;22.00;62.00
2749;DHT22;1382;52.142;11.618;2023-10-13T10:26:11;22.00;62.10
2749;DHT22;1382;52.142;11.618;2023-10-13T10:28:40;22.00;62.20
2749;DHT22;1382;52.142;11.618;2023-10-13T10:31:08;22.10;62.40
2749;DHT22;1382;52.142;11.618;2023-10-13T10:33:35;22.10;62.10
2749;DHT22;1382;52.142;11.618;2023-10-13T10:36:02;22.20;62.50
2749;DHT22;1382;52.142;11.618;2023-10-13T10:38:29;22.20;62.00
2749;DHT22;1382;52.142;11.618;2023-10-13T10:40:58;22.30;62.80
2749;DHT22;1382;52.142;11.618;2023-10-13T10:43:29;22.30;62.90
2749;DHT22;1382;52.142;11.618;2023-10-13T10:46:01;22.40;64.00
2749;DHT22;1382;52.142;11.618;2023-10-13T10:48:30;22.50;64.20
2749;DHT22;1382;52.142;11.618;2023-10-13T10:50:58;22.50;64.10
2749;DHT22;1382;52.142;11.618;2023-10-13T10:53:25;22.60;64.10
2749;DHT22;1382;52.142;11.618;2023-10-13T10:55:52;22.70;63.40
2749;DHT22;1382;52.142;11.618;2023-10-13T10:58:18;22.80;63.70
2749;DHT22;1382;52.142;11.618;2023-10-13T11:00:45;22.90;63.80
2749;DHT22;1382;52.142;11.618;2023-10-13T11:03:14;22.90;63.60
2749;DHT22;1382;52.142;11.618;2023-10-13T11:05:45;23.00;64.00
2749;DHT22;1382;52.142;11.618;2023-10-13T11:08:22;23.10;63.90
2749;DHT22;1382;52.142;11.618;2023-10-13T11:10:49;23.20;63.80
2749;DHT22;1382;52.142;11.618;2023-10-13T11:13:16;23.20;63.70
2749;DHT22;1382;52.142;11.618;2023-10-13T11:15:43;23.30;63.00
2749;DHT22;1382;52.142;11.618;2023-10-13T11:18:10;23.40;63.30
2749;DHT22;1382;52.142;11.618;2023-10-13T11:20:41;23.50;63.50
2749;DHT22;1382;52.142;11.618;2023-10-13T11:23:11;23.60;63.20
2749;DHT22;1382;52.142;11.618;2023-10-13T11:25:38;23.60;63.30
2749;DHT22;1382;52.142;11.618;2023-10-13T11:28:12;23.80;62.80
2749;DHT22;1382;52.142;11.618;2023-10-13T11:30:42;23.90;62.60
2749;DHT22;1382;52.142;11.618;2023-10-13T11:33:10;24.00;62.70
2749;DHT22;1382;52.142;11.618;2023-10-13T11:35:38;23.90;62.10
2749;DHT22;1382;52.142;11.618;2023-10-13T11:38:05;23.90;62.00
2749;DHT22;1382;52.142;11.618;2023-10-13T11:40:32;24.00;61.80
2749;DHT22;1382;52.142;11.618;2023-10-13T11:42:59;24.10;61.70
2749;DHT22;1382;52.142;11.618;2023-10-13T11:45:26;24.20;61.20
2749;DHT22;1382;52.142;11.618;2023-10-13T11:47:53;24.40;61.10
2749;DHT22;1382;52.142;11.618;2023-10-13T11:50:20;24.30;61.00
2749;DHT22;1382;52.142;11.618;2023-10-13T11:52:48;24.40;60.70
2749;DHT22;1382;52.142;11.618;2023-10-13T11:55:15;24.40;60.30
2749;DHT22;1382;52.142;11.618;2023-10-13T11:57:42;24.40;60.20
2749;DHT22;1382;52.142;11.618;2023-10-13T12:00:10;24.50;60.40
2749;DHT22;1382;52.142;11.618;2023-10-13T12:02:37;24.50;60.00
2749;DHT22;1382;52.142;11.618;2023-10-13T12:05:05;24.60;59.90
2749;DHT22;1382;52.142;11.618;2023-10-13T12:07:32;24.60;59.90
2749;DHT22;1382;52.142;11.618;2023-10-13T12:10:01;24.70;60.00
2749;DHT22;1382;52.142;11.618;2023-10-13T12:12:29;24.80;59.80
2749;DHT22;1382;52.142;11.618;2023-10-13T12:14:56;24.80;59.80
2749;DHT22;1382;52.142;11.618;2023-10-13T12:17:24;24.90;59.60
2749;DHT22;1382;52.142;11.618;2023-10-13T12:19:53;24.90;59.60
2749;DHT22;1382;52.142;11.618;2023-10-13T12:22:21;25.00;59.40
2749;DHT22;1382;52.142;11.618;2023-10-13T12:24:51;25.10;59.10
2749;DHT22;1382;52.142;11.618;2023-10-13T12:27:19;25.20;58.90
2749;DHT22;1382;52.142;11.618;2023-10-13T12:29:46;25.20;58.60
2749;DHT22;1382;52.142;11.618;2023-10-13T12:32:14;25.30;58.30
2749;DHT22;1382;52.142;11.618;2023-10-13T12:34:41;25.40;58.20
2749;DHT22;1382;52.142;11.618;2023-10-13T12:37:09;25.50;58.20
2749;DHT22;1382;52.142;11.618;2023-10-13T12:39:36;25.60;58.20
2749;DHT22;1382;52.142;11.618;2023-10-13T12:42:04;25.70;57.60
2749;DHT22;1382;52.142;11.618;2023-10-13T12:44:34;25.70;57.20
2749;DHT22;1382;52.142;11.618;2023-10-13T12:47:02;25.90;57.00
2749;DHT22;1382;52.142;11.618;2023-10-13T12:49:29;26.00;56.70
2749;DHT22;1382;52.142;11.618;2023-10-13T12:51:56;26.00;56.40
2749;DHT22;1382;52.142;11.618;2023-10-13T12:54:22;26.10;56.40
2749;DHT22;1382;52.142;11.618;2023-10-13T12:56:49;26.00;56.00
2749;DHT22;1382;52.142;11.618;2023-10-13T12:59:16;26.10;56.00
2749;DHT22;1382;52.142;11.618;2023-10-13T13:01:44;26.10;55.90
2749;DHT22;1382;52.142;11.618;2023-10-13T13:04:12;26.20;55.70
2749;DHT22;1382;52.142;11.618;2023-10-13T13:06:38;26.20;55.60
2749;DHT22;1382;52.142;11.618;2023-10-13T13:09:05;26.30;55.50
2749;DHT22;1382;52.142;11.618;2023-10-13T13:11:32;26.30;55.50
2749;DHT22;1382;52.142;11.618;2023-10-13T13:13:59;26.30;55.60
2749;DHT22;1382;52.142;11.618;2023-10-13T13:16:26;26.30;55.60
2749;DHT22;1382;52.142;11.618;2023-10-13T13:18:54;26.40;55.60
2749;DHT22;1382;52.142;11.618;2023-10-13T13:21:21;26.40;55.40
2749;DHT22;1382;52.142;11.618;2023-10-13T13:23:48;26.50;55.30
2749;DHT22;1382;52.142;11.618;2023-10-13T13:26:15;26.40;55.30
2749;DHT22;1382;52.142;11.618;2023-10-13T13:28:42;26.40;55.10
2749;DHT22;1382;52.142;11.618;2023-10-13T13:31:09;26.50;54.80
2749;DHT22;1382;52.142;11.618;2023-10-13T13:33:36;26.50;54.20
2749;DHT22;1382;52.142;11.618;2023-10-13T13:36:04;26.50;54.30
2749;DHT22;1382;52.142;11.618;2023-10-13T13:38:32;26.60;54.10
2749;DHT22;1382;52.142;11.618;2023-10-13T13:40:59;26.60;53.70
2749;DHT22;1382;52.142;11.618;2023-10-13T13:43:26;26.70;53.70
2749;DHT22;1382;52.142;11.618;2023-10-13T13:45:53;26.60;53.40
2749;DHT22;1382;52.142;11.618;2023-10-13T13:48:20;26.70;53.30
2749;DHT22;1382;52.142;11.618;2023-10-13T13:50:47;26.70;53.10
2749;DHT22;1382;52.142;11.618;2023-10-13T13:53:15;26.70;53.00
2749;DHT22;1382;52.142;11.618;2023-10-13T13:55:41;26.70;52.80
2749;DHT22;1382;52.142;11.618;2023-10-13T13:58:08;26.70;52.70
2749;DHT22;1382;52.142;11.618;2023-10-13T14:00:37;26.70;52.60
2749;DHT22;1382;52.142;11.618;2023-10-13T14:03:05;26.80;52.50
2749;DHT22;1382;52.142;11.618;2023-10-13T14:05:32;26.80;52.20
2749;DHT22;1382;52.142;11.618;2023-10-13T14:07:59;26.80;52.30
2749;DHT22;1382;52.142;11.618;2023-10-13T14:10:27;26.90;52.30
2749;DHT22;1382;52.142;11.618;2023-10-13T14:12:54;26.90;52.30
2749;DHT22;1382;52.142;11.618;2023-10-13T14:15:21;27.00;52.00
2749;DHT22;1382;52.142;11.618;2023-10-13T14:17:48;26.90;51.70
2749;DHT22;1382;52.142;11.618;2023-10-13T14:20:15;26.90;52.00
2749;DHT22;1382;52.142;11.618;2023-10-13T14:22:42;26.90;51.90
2749;DHT22;1382;52.142;11.618;2023-10-13T14:25:11;26.90;52.00
2749;DHT22;1382;52.142;11.618;2023-10-13T14:27:39;26.80;52.20
2749;DHT22;1382;52.142;11.618;2023-10-13T14:30:07;26.80;52.00
2749;DHT22;1382;52.142;11.618;2023-10-13T14:32:34;26.80;52.30
2749;DHT22;1382;52.142;11.618;2023-10-13T14:35:01;26.70;52.20
2749;DHT22;1382;52.142;11.618;2023-10-13T14:37:28;26.80;52.30
2749;DHT22;1382;52.142;11.618;2023-10-13T14:39:56;26.80;52.30
2749;DHT22;1382;52.142;11.618;2023-10-13T14:42:24;26.80;52.20
2749;DHT22;1382;52.142;11.618;2023-10-13T14:44:53;26.80;52.40
2749;DHT22;1382;52.142;11.618;2023-10-13T14:47:20;26.70;52.20
2749;DHT22;1382;52.142;11.618;2023-10-13T14:49:47;26.70;52.40
2749;DHT22;1382;52.142;11.618;2023-10-13T14:52:14;26.70;52.60
2749;DHT22;1382;52.142;11.618;2023-10-13T14:54:41;26.70;52.40
2749;DHT22;1382;52.142;11.618;2023-10-13T14:57:08;26.60;52.50
2749;DHT22;1382;52.142;11.618;2023-10-13T14:59:34;26.50;52.40
2749;DHT22;1382;52.142;11.618;2023-10-13T15:02:03;26.60;52.60
2749;DHT22;1382;52.142;11.618;2023-10-13T15:04:30;26.60;52.50
2749;DHT22;1382;52.142;11.618;2023-10-13T15:06:57;26.60;52.30
2749;DHT22;1382;52.142;11.618;2023-10-13T15:09:24;26.50;52.60
2749;DHT22;1382;52.142;11.618;2023-10-13T15:11:51;26.60;52.60
2749;DHT22;1382;52.142;11.618;2023-10-13T15:14:17;26.60;52.50
2749;DHT22;1382;52.142;11.618;2023-10-13T15:16:44;26.50;52.20
2749;DHT22;1382;52.142;11.618;2023-10-13T15:19:13;26.50;52.30
2749;DHT22;1382;52.142;11.618;2023-10-13T15:21:40;26.60;52.40
2749;DHT22;1382;52.142;11.618;2023-10-13T15:24:08;26.50;52.20
2749;DHT22;1382;52.142;11.618;2023-10-13T15:26:47;26.40;52.40
2749;DHT22;1382;52.142;11.618;2023-10-13T15:29:15;26.30;52.60
2749;DHT22;1382;52.142;11.618;2023-10-13T15:31:43;26.30;52.70
2749;DHT22;1382;52.142;11.618;2023-10-13T15:34:13;26.20;52.80
2749;DHT22;1382;52.142;11.618;2023-10-13T15:36:40;26.20;53.00
2749;DHT22;1382;52.142;11.618;2023-10-13T15:39:07;26.20;53.10
2749;DHT22;1382;52.142;11.618;2023-10-13T15:41:34;26.20;53.10
2749;DHT22;1382;52.142;11.618;2023-10-13T15:44:01;26.30;53.40
2749;DHT22;1382;52.142;11.618;2023-10-13T15:46:28;26.10;53.30